createdAt,value
2022-11-02T00:02:18.936Z,69.20
2022-11-02T00:04:45.712Z,69.20
2022-11-02T00:07:12.381Z,69.00
2022-11-02T00:09:39.013Z,68.70
2022-11-02T00:12:06.141Z,68.80
2022-11-02T00:14:32.754Z,68.90
2022-11-02T00:16:59.422Z,68.80
2022-11-02T00:19:26.072Z,68.80
2022-11-02T00:21:52.837Z,69.20
2022-11-02T00:24:19.465Z,68.90
2022-11-02T00:26:46.172Z,68.70
2022-11-02T00:29:12.791Z,68.70
2022-11-02T00:31:39.415Z,69.50
2022-11-02T00:34:06.111Z,68.60
2022-11-02T00:36:33.828Z,68.40
2022-11-02T00:39:00.534Z,69.00
2022-11-02T00:41:27.727Z,68.10
2022-11-02T00:43:54.430Z,68.10
2022-11-02T00:46:21.100Z,67.60
2022-11-02T00:48:47.795Z,67.50
2022-11-02T00:51:14.798Z,67.50
2022-11-02T00:53:42.870Z,67.30
2022-11-02T00:56:09.910Z,67.20
2022-11-02T00:58:36.973Z,67.10
2022-11-02T01:01:07.688Z,67.00
2022-11-02T01:03:36.056Z,68.40
2022-11-02T01:06:15.094Z,66.70
2022-11-02T01:08:42.007Z,68.20
2022-11-02T01:11:10.628Z,66.20
2022-11-02T01:13:37.256Z,66.90
2022-11-02T01:16:04.957Z,66.30
2022-11-02T01:18:31.702Z,66.80
2022-11-02T01:20:59.428Z,66.50
2022-11-02T01:23:26.233Z,67.20
2022-11-02T01:25:52.928Z,66.70
2022-11-02T01:28:19.587Z,66.50
2022-11-02T01:30:48.415Z,66.50
2022-11-02T01:33:15.067Z,67.60
2022-11-02T01:35:41.753Z,66.40
2022-11-02T01:38:08.405Z,66.40
2022-11-02T01:40:37.280Z,66.20
2022-11-02T01:43:22.023Z,67.40
2022-11-02T01:45:51.804Z,68.00
2022-11-02T01:48:26.652Z,66.90
2022-11-02T01:50:54.228Z,68.20
2022-11-02T01:53:20.925Z,66.20
2022-11-02T01:55:47.617Z,66.30
2022-11-02T01:58:14.289Z,66.60
2022-11-02T02:00:41.579Z,66.70
2022-11-02T02:03:11.200Z,66.90
2022-11-02T02:05:47.548Z,68.10
2022-11-02T02:08:21.744Z,68.50
2022-11-02T02:10:48.422Z,68.20
2022-11-02T02:13:16.401Z,67.10
2022-11-02T02:15:51.933Z,67.90
2022-11-02T02:18:44.662Z,69.20
2022-11-02T02:21:33.165Z,69.20
2022-11-02T02:24:31.894Z,68.90
2022-11-02T02:27:11.790Z,69.40
2022-11-02T02:30:01.969Z,67.10
2022-11-02T02:33:01.473Z,69.20
2022-11-02T02:35:41.916Z,69.40
2022-11-02T02:38:28.627Z,70.20
2022-11-02T02:41:14.420Z,69.30
2022-11-02T02:43:46.057Z,69.10
2022-11-02T02:46:16.638Z,69.30
2022-11-02T02:48:45.925Z,67.80
2022-11-02T02:51:19.606Z,69.10
2022-11-02T02:53:51.095Z,69.80
2022-11-02T02:56:23.314Z,69.50
2022-11-02T02:59:02.362Z,69.50
2022-11-02T03:01:29.370Z,70.20
2022-11-02T03:03:56.110Z,68.50
2022-11-02T03:06:27.526Z,68.50
2022-11-02T03:09:02.623Z,69.90
2022-11-02T03:11:30.969Z,69.70
2022-11-02T03:14:05.107Z,69.20
2022-11-02T03:17:09.839Z,68.20
2022-11-02T03:19:48.683Z,70.40
2022-11-02T03:22:34.866Z,69.90
2022-11-02T03:25:17.974Z,70.00
2022-11-02T03:28:06.397Z,70.40
2022-11-02T03:30:41.256Z,69.80
2022-11-02T03:33:17.102Z,70.10
2022-11-02T03:35:48.740Z,69.50
2022-11-02T03:38:24.986Z,69.80
2022-11-02T03:40:56.836Z,69.20
2022-11-02T03:43:25.664Z,69.70
2022-11-02T03:45:57.630Z,69.00
2022-11-02T03:48:34.807Z,69.70
2022-11-02T03:51:05.868Z,69.70
2022-11-02T03:53:51.376Z,69.60
2022-11-02T03:56:31.369Z,69.00
2022-11-02T03:58:58.668Z,68.80
2022-11-02T04:01:28.938Z,68.00
2022-11-02T04:03:56.707Z,68.90
2022-11-02T04:06:25.392Z,67.60
2022-11-02T04:08:52.709Z,67.50
2022-11-02T04:11:39.395Z,67.50
2022-11-02T04:14:29.796Z,66.80
2022-11-02T04:17:16.570Z,66.60
2022-11-02T04:19:50.189Z,66.20
2022-11-02T04:22:37.112Z,67.10
2022-11-02T04:25:15.957Z,67.10
2022-11-02T04:27:53.338Z,67.30
2022-11-02T04:30:25.046Z,67.50
2022-11-02T04:33:12.543Z,66.40
2022-11-02T04:35:52.284Z,65.70
2022-11-02T04:38:38.923Z,66.00
2022-11-02T04:41:25.394Z,65.30
2022-11-02T04:43:54.142Z,65.60
2022-11-02T04:46:22.036Z,66.10
2022-11-02T04:48:49.596Z,66.10
2022-11-02T04:51:16.480Z,65.50
2022-11-02T04:53:43.933Z,65.60
2022-11-02T04:56:11.200Z,65.50
2022-11-02T04:58:38.310Z,65.60
2022-11-02T05:01:12.364Z,65.50
2022-11-02T05:03:39.402Z,67.10
2022-11-02T05:06:07.813Z,65.60
2022-11-02T05:08:36.539Z,66.20
2022-11-02T05:11:03.284Z,66.50
2022-11-02T05:13:31.069Z,66.20
2022-11-02T05:15:59.980Z,66.40
2022-11-02T05:18:29.576Z,67.30
2022-11-02T05:20:58.561Z,67.30
2022-11-02T05:23:28.197Z,68.60
2022-11-02T05:26:00.552Z,68.70
2022-11-02T05:28:29.667Z,70.00
2022-11-02T05:31:00.430Z,68.80
2022-11-02T05:33:31.064Z,69.80
2022-11-02T05:36:00.907Z,69.30
2022-11-02T05:38:29.429Z,69.00
2022-11-02T05:40:58.790Z,69.30
2022-11-02T05:43:28.790Z,70.00
2022-11-02T05:46:01.710Z,68.80
2022-11-02T05:48:31.975Z,70.60
2022-11-02T05:51:00.177Z,70.40
2022-11-02T05:53:31.501Z,69.60
2022-11-02T05:56:00.005Z,69.30
2022-11-02T05:58:27.580Z,69.40
2022-11-02T06:00:54.736Z,68.70
2022-11-02T06:03:21.371Z,68.80
2022-11-02T06:05:48.055Z,68.40
2022-11-02T06:08:14.752Z,68.20
2022-11-02T06:10:43.194Z,68.60
2022-11-02T06:13:10.248Z,68.30
2022-11-02T06:15:36.900Z,68.70
2022-11-02T06:18:03.642Z,68.30
2022-11-02T06:20:30.317Z,68.30
2022-11-02T06:22:56.995Z,68.10
2022-11-02T06:25:23.666Z,68.10
2022-11-02T06:27:56.565Z,68.80
2022-11-02T06:30:27.001Z,70.00
2022-11-02T06:32:54.752Z,68.70
2022-11-02T06:35:23.011Z,69.40
2022-11-02T06:37:50.142Z,69.40
2022-11-02T06:40:18.360Z,68.70
2022-11-02T06:43:03.419Z,68.50
2022-11-02T06:45:34.246Z,68.20
2022-11-02T06:48:01.053Z,68.30
2022-11-02T06:50:27.899Z,68.10
2022-11-02T06:52:54.525Z,68.30
2022-11-02T06:55:21.158Z,68.00
2022-11-02T06:57:47.763Z,67.90
2022-11-02T07:00:20.869Z,68.00
2022-11-02T07:03:07.887Z,69.00
2022-11-02T07:05:35.768Z,70.20
2022-11-02T07:08:02.925Z,68.50
2022-11-02T07:10:30.233Z,68.60
2022-11-02T07:12:57.690Z,68.10
2022-11-02T07:15:26.011Z,68.40
2022-11-02T07:17:53.041Z,68.50
2022-11-02T07:20:20.334Z,67.90
2022-11-02T07:22:58.338Z,67.80
2022-11-02T07:25:27.126Z,69.60
2022-11-02T07:27:54.887Z,68.20
2022-11-02T07:30:21.929Z,67.40
2022-11-02T07:32:48.552Z,66.80
2022-11-02T07:35:17.459Z,66.50
2022-11-02T07:37:44.903Z,67.40
2022-11-02T07:40:14.264Z,67.00
2022-11-02T07:42:45.641Z,67.00
2022-11-02T07:45:12.381Z,67.70
2022-11-02T07:47:45.953Z,66.20
2022-11-02T07:50:14.626Z,67.80
2022-11-02T07:52:49.161Z,66.90
2022-11-02T07:55:17.483Z,67.60
2022-11-02T07:57:52.353Z,66.20
2022-11-02T08:00:19.049Z,65.40
2022-11-02T08:02:45.700Z,65.20
2022-11-02T08:05:12.422Z,64.80
2022-11-02T08:07:39.062Z,64.60
2022-11-02T08:10:06.225Z,64.40
2022-11-02T08:12:32.871Z,64.60
2022-11-02T08:15:02.312Z,64.20
2022-11-02T08:17:33.039Z,64.10
2022-11-02T08:19:59.681Z,64.00
2022-11-02T08:22:26.346Z,63.90
2022-11-02T08:24:52.978Z,63.70
2022-11-02T08:27:19.638Z,63.60
2022-11-02T08:29:46.330Z,63.40
2022-11-02T08:32:13.145Z,63.30
2022-11-02T08:34:39.785Z,63.60
2022-11-02T08:37:08.410Z,62.20
2022-11-02T08:39:35.119Z,64.00
2022-11-02T08:42:01.796Z,63.00
2022-11-02T08:44:28.420Z,63.00
2022-11-02T08:46:55.891Z,62.90
2022-11-02T08:49:22.534Z,63.30
2022-11-02T08:51:49.244Z,62.50
2022-11-02T08:54:15.972Z,62.30
2022-11-02T08:56:42.664Z,62.60
2022-11-02T08:59:09.410Z,62.10
2022-11-02T09:01:36.129Z,62.60
2022-11-02T09:04:02.915Z,61.90
2022-11-02T09:06:29.591Z,62.70
2022-11-02T09:08:58.057Z,61.90
2022-11-02T09:11:26.359Z,61.80
2022-11-02T09:13:56.949Z,61.90
2022-11-02T09:16:23.970Z,61.90
2022-11-02T09:18:50.632Z,61.90
2022-11-02T09:21:17.274Z,61.90
2022-11-02T09:23:44.611Z,61.60
2022-11-02T09:26:11.243Z,61.90
2022-11-02T09:28:37.860Z,61.80
2022-11-02T09:31:07.387Z,61.80
2022-11-02T09:33:37.353Z,61.70
2022-11-02T09:36:05.751Z,61.80
2022-11-02T09:38:32.681Z,62.80
2022-11-02T09:41:22.671Z,61.60
2022-11-02T09:44:07.476Z,62.60
2022-11-02T09:46:40.271Z,63.10
2022-11-02T09:49:23.269Z,62.90
2022-11-02T09:51:51.323Z,63.30
2022-11-02T09:54:33.621Z,62.60
2022-11-02T09:57:09.625Z,62.40
2022-11-02T09:59:36.397Z,62.90
2022-11-02T10:02:18.290Z,61.30
2022-11-02T10:04:45.068Z,61.80
2022-11-02T10:07:38.718Z,60.80
2022-11-02T10:10:26.755Z,62.40
2022-11-02T10:13:07.000Z,62.60
2022-11-02T10:15:41.005Z,62.00
2022-11-02T10:18:17.486Z,61.30
2022-11-02T10:20:52.497Z,60.90
2022-11-02T10:23:31.979Z,61.00
2022-11-02T10:26:00.641Z,60.30
2022-11-02T10:28:32.610Z,59.90
2022-11-02T10:31:01.252Z,60.40
2022-11-02T10:33:29.652Z,59.90
2022-11-02T10:36:19.352Z,59.80
2022-11-02T10:39:04.906Z,60.30
2022-11-02T10:41:46.449Z,60.00
2022-11-02T10:44:41.290Z,60.00
2022-11-02T10:47:26.872Z,59.50
2022-11-02T10:50:13.034Z,59.70
2022-11-02T10:52:43.326Z,59.20
2022-11-02T10:55:37.393Z,57.90
2022-11-02T10:58:06.351Z,57.90
2022-11-02T11:00:37.396Z,57.60
2022-11-02T11:03:10.622Z,58.30
2022-11-02T11:05:57.279Z,58.30
2022-11-02T11:08:46.756Z,57.80
2022-11-02T11:11:24.089Z,57.70
2022-11-02T11:19:55.778Z,57.50
2022-11-02T11:22:33.162Z,57.10
2022-11-02T11:25:28.054Z,56.30
2022-11-02T11:27:57.402Z,56.70
2022-11-02T11:30:58.402Z,55.30
2022-11-02T11:33:20.770Z,55.60
2022-11-02T11:35:50.144Z,55.90
2022-11-02T11:38:23.540Z,55.70
2022-11-02T11:40:53.988Z,55.50
2022-11-02T11:43:23.214Z,55.80
2022-11-02T11:46:06.844Z,55.50
2022-11-02T11:48:57.543Z,56.30
2022-11-02T11:51:30.637Z,55.80
2022-11-02T11:54:29.209Z,55.70
2022-11-02T11:57:20.227Z,56.10
2022-11-02T11:59:49.517Z,54.60
2022-11-02T12:02:48.100Z,54.30
2022-11-02T12:05:16.975Z,55.00
2022-11-02T12:08:12.935Z,54.60
2022-11-02T12:10:45.609Z,54.70
2022-11-02T12:13:44.531Z,54.60
2022-11-02T12:16:16.887Z,54.70
2022-11-02T12:19:08.191Z,53.70
2022-11-02T12:21:50.720Z,53.90
2022-11-02T12:24:35.953Z,53.90
2022-11-02T12:27:51.901Z,54.10
2022-11-02T12:30:21.693Z,53.30
2022-11-02T12:32:58.327Z,52.20
2022-11-02T12:35:34.002Z,51.90
2022-11-02T12:38:09.517Z,51.00
2022-11-02T12:40:54.888Z,52.00
2022-11-02T12:43:47.723Z,51.70
2022-11-02T12:46:45.925Z,51.70
2022-11-02T12:49:36.710Z,51.70
2022-11-02T12:52:09.300Z,51.00
2022-11-02T12:54:41.637Z,50.70
2022-11-02T12:57:14.007Z,50.70
2022-11-02T12:59:43.576Z,50.00
2022-11-02T13:02:44.710Z,49.20
2022-11-02T13:05:18.710Z,49.50
2022-11-02T13:08:07.409Z,49.40
2022-11-02T13:10:53.597Z,50.00
2022-11-02T13:13:33.575Z,48.80
2022-11-02T13:16:01.923Z,48.90
2022-11-02T13:18:47.314Z,48.30
2022-11-02T13:21:18.519Z,48.70
2022-11-02T13:23:51.452Z,48.50
2022-11-02T13:26:29.097Z,48.70
2022-11-02T13:29:17.448Z,49.20
2022-11-02T13:31:53.488Z,48.40
2022-11-02T13:34:33.758Z,48.60
2022-11-02T13:37:14.661Z,48.60
2022-11-02T13:39:47.701Z,48.30
2022-11-02T13:42:44.484Z,48.30
2022-11-02T13:45:29.783Z,48.40
2022-11-02T13:48:13.840Z,47.20
2022-11-02T13:50:44.520Z,48.10
2022-11-02T13:53:18.844Z,47.80
2022-11-02T13:55:54.169Z,48.00
2022-11-02T13:58:36.742Z,47.30
2022-11-02T14:01:07.857Z,47.80
2022-11-02T14:04:01.750Z,47.00
2022-11-02T14:06:33.327Z,46.90
2022-11-02T14:09:07.262Z,46.80
2022-11-02T14:11:39.493Z,46.80
2022-11-02T14:14:07.588Z,47.50
2022-11-02T14:16:43.110Z,48.00
2022-11-02T14:19:23.826Z,49.40
2022-11-02T14:21:59.648Z,49.70
2022-11-02T14:24:36.048Z,50.80
2022-11-02T14:27:04.831Z,51.00
2022-11-02T14:29:46.336Z,50.20
2022-11-02T14:32:23.784Z,50.90
2022-11-02T14:34:56.367Z,50.70
2022-11-02T14:37:49.653Z,50.90
2022-11-02T14:40:41.982Z,51.70
2022-11-02T14:43:30.229Z,52.60
2022-11-02T14:46:34.454Z,51.40
2022-11-02T14:49:04.116Z,52.80
2022-11-02T14:51:33.934Z,52.30
2022-11-02T14:54:08.024Z,52.50
2022-11-02T14:56:59.024Z,52.50
2022-11-02T14:59:30.953Z,53.70
2022-11-02T15:02:01.021Z,53.70
2022-11-02T15:04:30.154Z,53.20
2022-11-02T15:07:01.058Z,53.60
2022-11-02T15:09:57.480Z,53.70
2022-11-02T15:12:31.846Z,54.30
2022-11-02T15:15:04.657Z,54.60
2022-11-02T15:17:31.263Z,55.00
2022-11-02T15:19:57.837Z,53.70
2022-11-02T15:22:40.404Z,54.10
2022-11-02T15:25:19.839Z,56.00
2022-11-02T15:27:48.511Z,55.70
2022-11-02T15:30:21.423Z,54.90
2022-11-02T15:33:01.710Z,55.60
2022-11-02T15:35:35.756Z,56.50
2022-11-02T15:38:27.923Z,57.00
2022-11-02T15:41:06.127Z,56.70
2022-11-02T15:43:41.864Z,56.90
2022-11-02T15:46:31.207Z,55.70
2022-11-02T15:49:12.826Z,57.00
2022-11-02T15:51:58.017Z,57.30
2022-11-02T15:54:46.492Z,56.00
2022-11-02T15:57:35.781Z,57.30
2022-11-02T16:00:32.303Z,58.50
2022-11-02T16:03:05.256Z,58.50
2022-11-02T16:05:48.414Z,58.40
2022-11-02T16:08:24.523Z,58.80
2022-11-02T16:11:04.494Z,58.70
2022-11-02T16:13:48.708Z,58.90
2022-11-02T16:16:21.949Z,58.70
2022-11-02T16:18:52.841Z,57.90
2022-11-02T16:21:21.233Z,58.10
2022-11-02T16:23:51.802Z,58.80
2022-11-02T16:26:22.188Z,59.60
2022-11-02T16:28:54.083Z,58.90
2022-11-02T16:31:24.993Z,59.90
2022-11-02T16:33:56.318Z,59.10
2022-11-02T16:36:24.518Z,59.10
2022-11-02T16:38:54.876Z,59.90
2022-11-02T16:41:22.071Z,58.80
2022-11-02T16:43:49.964Z,59.20
2022-11-02T16:46:17.822Z,59.80
2022-11-02T16:49:29.329Z,59.10
2022-11-02T16:52:00.807Z,60.90
2022-11-02T16:54:41.294Z,61.00
2022-11-02T16:57:12.100Z,60.90
2022-11-02T16:59:54.498Z,61.20
2022-11-02T17:02:39.637Z,60.90
2022-11-02T17:05:15.099Z,61.00
2022-11-02T17:07:44.141Z,60.20
2022-11-02T17:10:20.606Z,60.40
2022-11-02T17:12:48.693Z,61.70
2022-11-02T17:15:19.098Z,59.90
2022-11-02T17:17:46.230Z,60.10
2022-11-02T17:20:15.883Z,58.40
2022-11-02T17:22:51.971Z,57.70
2022-11-02T17:25:32.512Z,59.50
2022-11-02T17:28:05.356Z,60.10
2022-11-02T17:30:35.145Z,58.70
2022-11-02T17:33:43.667Z,59.90
2022-11-02T17:36:10.464Z,58.70
2022-11-02T17:38:37.354Z,57.50
2022-11-02T17:41:24.142Z,57.50
2022-11-02T17:43:51.128Z,57.70
2022-11-02T17:46:17.753Z,57.70
2022-11-02T17:48:44.396Z,57.60
2022-11-02T17:51:15.248Z,57.90
2022-11-02T17:53:42.402Z,58.10
2022-11-02T17:56:10.795Z,58.90
2022-11-02T17:58:37.480Z,59.40
2022-11-02T18:01:05.161Z,58.60
2022-11-02T18:03:31.943Z,59.30
2022-11-02T18:06:00.282Z,58.90
2022-11-02T18:08:27.235Z,59.00
2022-11-02T18:10:53.854Z,58.90
2022-11-02T18:13:23.181Z,58.90
2022-11-02T18:15:50.358Z,59.80
2022-11-02T18:18:17.035Z,58.90
2022-11-02T18:20:43.748Z,58.20
2022-11-02T18:23:15.788Z,58.00
2022-11-02T18:25:42.758Z,59.60
2022-11-02T18:28:09.436Z,58.20
2022-11-02T18:30:36.100Z,57.70
2022-11-02T18:33:02.857Z,57.40
2022-11-02T18:35:29.601Z,57.70
2022-11-02T18:37:56.523Z,57.60
2022-11-02T18:40:23.227Z,58.00
2022-11-02T18:42:50.022Z,57.80
2022-11-02T18:45:16.797Z,57.40
2022-11-02T18:47:43.601Z,57.40
2022-11-02T18:50:12.532Z,57.50
2022-11-02T18:52:40.288Z,58.40
2022-11-02T18:55:07.507Z,58.10
2022-11-02T18:57:34.174Z,57.70
2022-11-02T19:00:02.694Z,57.60
2022-11-02T19:02:29.836Z,57.60
2022-11-02T19:04:56.819Z,57.80
2022-11-02T19:07:42.007Z,57.80
2022-11-02T19:10:09.671Z,56.90
2022-11-02T19:12:36.331Z,57.80
2022-11-02T19:15:03.136Z,57.20
2022-11-02T19:17:30.186Z,57.60
2022-11-02T19:19:56.997Z,57.20
2022-11-02T19:22:25.755Z,57.10
2022-11-02T19:24:52.647Z,58.40
2022-11-02T19:27:24.303Z,57.60
2022-11-02T19:29:51.875Z,58.80
2022-11-02T19:32:19.175Z,57.90
2022-11-02T19:34:46.231Z,57.90
2022-11-02T19:37:13.186Z,57.90
2022-11-02T19:39:39.889Z,57.70
2022-11-02T19:42:07.382Z,58.50
2022-11-02T19:44:39.687Z,57.60
2022-11-02T19:47:08.978Z,58.40
2022-11-02T19:49:35.584Z,57.30
2022-11-02T19:52:02.308Z,58.40
2022-11-02T19:54:28.994Z,57.40
2022-11-02T19:56:55.623Z,57.60
2022-11-02T19:59:22.516Z,57.30
2022-11-02T20:01:50.473Z,57.40
2022-11-02T20:04:17.686Z,57.30
2022-11-02T20:06:44.773Z,57.50
2022-11-02T20:09:17.459Z,57.80
2022-11-02T20:11:45.425Z,59.10
2022-11-02T20:14:13.686Z,57.90
2022-11-02T20:16:40.873Z,58.20
2022-11-02T20:19:08.888Z,57.70
2022-11-02T20:21:41.675Z,57.60
2022-11-02T20:24:10.207Z,57.50
2022-11-02T20:26:38.380Z,57.60
2022-11-02T20:29:06.601Z,58.20
2022-11-02T20:31:38.593Z,58.30
2022-11-02T20:34:07.452Z,59.20
2022-11-02T20:36:34.788Z,58.50
2022-11-02T20:39:04.529Z,57.50
2022-11-02T20:41:31.256Z,57.80
2022-11-02T20:43:57.880Z,58.60
2022-11-02T20:46:45.260Z,58.00
2022-11-02T20:49:21.873Z,59.10
2022-11-02T20:51:56.131Z,58.00
2022-11-02T20:54:22.896Z,58.20
2022-11-02T20:56:50.306Z,58.00
2022-11-02T20:59:17.459Z,58.40
2022-11-02T21:01:44.527Z,58.00
2022-11-02T21:04:16.865Z,58.20
2022-11-02T21:06:46.335Z,58.20
2022-11-02T21:09:12.981Z,58.30
2022-11-02T21:11:58.455Z,58.30
2022-11-02T21:14:25.200Z,58.20
2022-11-02T21:16:51.848Z,58.40
2022-11-02T21:19:18.478Z,58.50
2022-11-02T21:21:45.354Z,58.50
2022-11-02T21:24:12.291Z,58.50
2022-11-02T21:26:38.944Z,58.90
2022-11-02T21:29:05.604Z,59.20
2022-11-02T21:31:32.276Z,58.90
2022-11-02T21:33:58.948Z,58.90
2022-11-02T21:36:25.623Z,59.00
2022-11-02T21:38:52.312Z,59.10
2022-11-02T21:41:21.483Z,60.00
2022-11-02T21:43:51.753Z,60.10
2022-11-02T21:46:19.620Z,59.40
2022-11-02T21:48:46.602Z,59.50
2022-11-02T21:51:16.355Z,59.20
2022-11-02T21:53:44.895Z,60.50
2022-11-02T21:56:14.530Z,60.50
2022-11-02T21:58:44.845Z,60.40
2022-11-02T22:01:44.405Z,59.70
2022-11-02T22:04:23.469Z,61.00
2022-11-02T22:06:50.892Z,60.70
2022-11-02T22:09:18.385Z,60.00
2022-11-02T22:11:45.237Z,60.50
2022-11-02T22:14:12.879Z,60.00
2022-11-02T22:16:41.812Z,60.80
2022-11-02T22:19:10.860Z,61.40
2022-11-02T22:21:42.591Z,61.30
2022-11-02T22:24:09.995Z,60.90
2022-11-02T22:26:38.085Z,60.70
2022-11-02T22:29:05.831Z,61.30
2022-11-02T22:31:40.313Z,61.50
2022-11-02T22:34:10.255Z,62.80
2022-11-02T22:36:39.020Z,61.90
2022-11-02T22:39:07.781Z,62.30
2022-11-02T22:41:39.597Z,62.20
2022-11-02T22:44:10.509Z,62.20
2022-11-02T22:46:42.698Z,60.80
2022-11-02T22:49:11.308Z,63.00
2022-11-02T22:51:40.311Z,62.50
2022-11-02T22:54:09.188Z,62.70
2022-11-02T22:56:36.293Z,62.80
2022-11-02T22:59:03.367Z,61.80
2022-11-02T23:01:31.419Z,61.80
2022-11-02T23:03:58.647Z,62.70
2022-11-02T23:06:26.229Z,62.00
2022-11-02T23:08:56.150Z,62.40
2022-11-02T23:11:25.632Z,63.20
2022-11-02T23:14:04.671Z,63.10
2022-11-02T23:16:32.825Z,63.30
2022-11-02T23:19:23.492Z,63.10
2022-11-02T23:22:25.192Z,63.20
2022-11-02T23:25:11.935Z,64.10
2022-11-02T23:28:05.517Z,63.20
2022-11-02T23:30:54.982Z,63.20
2022-11-02T23:33:24.061Z,63.70
2022-11-02T23:36:10.340Z,62.80
2022-11-02T23:39:00.054Z,62.20
2022-11-02T23:41:27.410Z,62.30
2022-11-02T23:44:11.588Z,62.20
2022-11-02T23:46:46.513Z,61.70
2022-11-02T23:49:13.580Z,63.10
2022-11-02T23:51:59.113Z,62.30
2022-11-02T23:54:44.548Z,61.30
2022-11-02T23:57:11.502Z,61.50
2022-11-02T23:59:38.186Z,61.80
